createdAt,value
2023-04-16T00:00:12.851Z,96528.91
2023-04-16T00:02:45.124Z,96527.91
2023-04-16T00:05:16.824Z,96521.72
2023-04-16T00:07:49.136Z,96525.94
2023-04-16T00:10:20.887Z,96528.66
2023-04-16T00:12:52.512Z,96531.00
2023-04-16T00:15:24.061Z,96523.41
2023-04-16T00:17:55.912Z,96534.13
2023-04-16T00:20:27.708Z,96531.19
2023-04-16T00:22:59.552Z,96522.66
2023-04-16T00:25:31.446Z,96536.34
2023-04-16T00:28:03.226Z,96531.19
2023-04-16T00:30:35.290Z,96545.53
2023-04-16T00:33:07.026Z,96541.84
2023-04-16T00:35:38.692Z,96539.16
2023-04-16T00:38:10.220Z,96533.66
2023-04-16T00:40:41.834Z,96537.38
2023-04-16T00:43:23.146Z,96539.13
2023-04-16T00:45:57.517Z,96542.22
2023-04-16T00:48:31.739Z,96545.34
2023-04-16T00:51:08.213Z,96542.50
2023-04-16T00:53:39.859Z,96539.53
2023-04-16T00:56:12.433Z,96543.47
2023-04-16T00:58:44.225Z,96544.00
2023-04-16T01:01:16.334Z,96540.44
2023-04-16T01:03:49.577Z,96540.09
2023-04-16T01:06:22.182Z,96540.31
2023-04-16T01:08:54.344Z,96538.94
2023-04-16T01:11:26.467Z,96551.19
2023-04-16T01:13:58.057Z,96548.03
2023-04-16T01:16:30.567Z,96540.44
2023-04-16T01:19:02.920Z,96553.34
2023-04-16T01:21:34.653Z,96542.13
2023-04-16T01:24:06.648Z,96547.06
2023-04-16T01:26:38.318Z,96555.19
2023-04-16T01:29:10.904Z,96542.91
2023-04-16T01:31:43.664Z,96550.06
2023-04-16T01:34:15.395Z,96543.66
2023-04-16T01:36:46.892Z,96547.84
2023-04-16T01:39:19.507Z,96549.03
2023-04-16T01:41:52.266Z,96544.50
2023-04-16T01:44:23.903Z,96548.94
2023-04-16T01:46:55.520Z,96553.94
2023-04-16T01:49:27.831Z,96546.16
2023-04-16T01:52:00.853Z,96558.31
2023-04-16T01:54:32.800Z,96547.00
2023-04-16T01:57:04.404Z,96550.22
2023-04-16T01:59:35.959Z,96555.78
2023-04-16T02:02:11.464Z,96542.03
2023-04-16T02:04:45.979Z,96545.69
2023-04-16T02:07:17.579Z,96553.75
2023-04-16T02:09:51.922Z,96540.84
2023-04-16T02:12:23.921Z,96547.53
2023-04-16T02:14:55.599Z,96544.38
2023-04-16T02:17:27.434Z,96543.91
2023-04-16T02:20:00.182Z,96547.47
2023-04-16T02:22:32.563Z,96548.09
2023-04-16T02:25:05.139Z,96547.97
2023-04-16T02:27:36.723Z,96553.66
2023-04-16T02:30:09.231Z,96552.13
2023-04-16T02:32:41.002Z,96544.53
2023-04-16T02:35:12.750Z,96554.44
2023-04-16T02:37:44.401Z,96545.53
2023-04-16T02:40:16.232Z,96555.91
2023-04-16T02:42:47.816Z,96557.19
2023-04-16T02:45:20.891Z,96551.53
2023-04-16T02:47:52.651Z,96545.97
2023-04-16T02:50:24.228Z,96543.19
2023-04-16T02:52:56.524Z,96544.94
2023-04-16T02:55:29.539Z,96546.25
2023-04-16T02:58:01.614Z,96558.31
2023-04-16T03:00:33.151Z,96552.03
2023-04-16T03:03:04.793Z,96541.25
2023-04-16T03:05:38.020Z,96550.06
2023-04-16T03:08:10.835Z,96545.94
2023-04-16T03:10:43.386Z,96548.88
2023-04-16T03:13:15.316Z,96545.91
2023-04-16T03:15:50.478Z,96548.72
2023-04-16T03:18:22.099Z,96550.22
2023-04-16T03:20:54.252Z,96546.41
2023-04-16T03:23:26.363Z,96549.38
2023-04-16T03:25:57.957Z,96551.84
2023-04-16T03:28:29.617Z,96551.59
2023-04-16T03:31:01.411Z,96543.81
2023-04-16T03:33:33.085Z,96546.06
2023-04-16T03:36:05.005Z,96553.56
2023-04-16T03:38:36.653Z,96546.41
2023-04-16T03:41:08.219Z,96553.28
2023-04-16T03:43:40.057Z,96560.66
2023-04-16T03:46:11.790Z,96559.69
2023-04-16T03:48:43.420Z,96557.06
2023-04-16T03:51:15.457Z,96558.97
2023-04-16T03:53:47.054Z,96554.63
2023-04-16T03:56:18.600Z,96552.00
2023-04-16T03:58:50.316Z,96559.97
2023-04-16T04:01:21.915Z,96564.22
2023-04-16T04:03:53.861Z,96567.09
2023-04-16T04:06:25.479Z,96573.03
2023-04-16T04:08:57.436Z,96575.50
2023-04-16T04:11:30.997Z,96569.63
2023-04-16T04:14:02.666Z,96574.78
2023-04-16T04:16:35.358Z,96583.09
2023-04-16T04:19:07.092Z,96581.06
2023-04-16T04:21:38.948Z,96591.91
2023-04-16T04:24:10.664Z,96584.56
2023-04-16T04:26:42.508Z,96582.69
2023-04-16T04:29:14.062Z,96586.97
2023-04-16T04:31:46.195Z,96586.47
2023-04-16T04:34:18.342Z,96584.56
2023-04-16T04:36:50.141Z,96582.53
2023-04-16T04:39:22.630Z,96588.28
2023-04-16T04:41:54.391Z,96584.06
2023-04-16T04:44:26.565Z,96590.50
2023-04-16T04:46:58.341Z,96584.56
2023-04-16T04:49:30.961Z,96592.53
2023-04-16T04:52:02.775Z,96601.09
2023-04-16T04:54:34.628Z,96594.47
2023-04-16T04:57:06.336Z,96601.44
2023-04-16T04:59:38.049Z,96609.06
2023-04-16T05:02:10.529Z,96613.69
2023-04-16T05:04:42.346Z,96607.88
2023-04-16T05:07:14.365Z,96614.59
2023-04-16T05:09:45.971Z,96617.84
2023-04-16T05:12:17.785Z,96619.63
2023-04-16T05:14:53.401Z,96618.91
2023-04-16T05:17:27.527Z,96624.75
2023-04-16T05:20:02.913Z,96627.84
2023-04-16T05:22:35.173Z,96630.59
2023-04-16T05:25:07.365Z,96631.28
2023-04-16T05:27:39.073Z,96632.44
2023-04-16T05:30:11.335Z,96635.88
2023-04-16T05:32:43.007Z,96630.13
2023-04-16T05:35:17.206Z,96630.53
2023-04-16T05:37:49.187Z,96628.94
2023-04-16T05:40:21.110Z,96632.81
2023-04-16T05:42:52.853Z,96626.03
2023-04-16T05:45:26.731Z,96640.72
2023-04-16T05:47:59.574Z,96632.78
2023-04-16T05:50:31.350Z,96635.38
2023-04-16T05:53:08.070Z,96635.13
2023-04-16T05:55:39.790Z,96630.56
2023-04-16T05:58:11.348Z,96631.72
2023-04-16T06:00:43.062Z,96634.81
2023-04-16T06:03:14.967Z,96650.34
2023-04-16T06:05:46.826Z,96650.94
2023-04-16T06:08:18.649Z,96647.41
2023-04-16T06:10:51.247Z,96656.44
2023-04-16T06:13:22.810Z,96651.50
2023-04-16T06:15:54.670Z,96659.63
2023-04-16T06:18:28.239Z,96657.34
2023-04-16T06:21:00.475Z,96653.72
2023-04-16T06:23:34.217Z,96656.00
2023-04-16T06:26:06.385Z,96651.56
2023-04-16T06:28:38.688Z,96657.44
2023-04-16T06:31:11.222Z,96663.25
2023-04-16T06:33:44.485Z,96670.63
2023-04-16T06:36:19.242Z,96666.97
2023-04-16T06:38:50.955Z,96679.22
2023-04-16T06:41:25.507Z,96675.50
2023-04-16T06:43:57.137Z,96680.75
2023-04-16T06:46:29.441Z,96674.97
2023-04-16T06:49:01.335Z,96673.50
2023-04-16T06:51:34.055Z,96676.03
2023-04-16T06:54:06.231Z,96689.28
2023-04-16T06:56:38.159Z,96684.44
2023-04-16T06:59:11.221Z,96679.50
2023-04-16T07:01:43.056Z,96682.50
2023-04-16T07:04:16.345Z,96679.16
2023-04-16T07:06:48.298Z,96692.69
2023-04-16T07:09:20.187Z,96684.06
2023-04-16T07:11:52.086Z,96694.16
2023-04-16T07:14:23.954Z,96684.66
2023-04-16T07:16:55.914Z,96688.44
2023-04-16T07:19:31.956Z,96688.19
2023-04-16T07:22:04.210Z,96689.63
2023-04-16T07:24:36.643Z,96686.22
2023-04-16T07:27:08.132Z,96696.75
2023-04-16T07:29:39.900Z,96693.81
2023-04-16T07:32:15.133Z,96700.41
2023-04-16T07:34:48.250Z,96697.63
2023-04-16T07:37:19.934Z,96699.97
2023-04-16T07:39:53.115Z,96697.91
2023-04-16T07:42:24.939Z,96696.13
2023-04-16T07:44:57.058Z,96704.44
2023-04-16T07:47:28.784Z,96694.59
2023-04-16T07:50:00.698Z,96694.38
2023-04-16T07:52:32.863Z,96694.19
2023-04-16T07:55:05.698Z,96705.88
2023-04-16T07:57:37.494Z,96716.22
2023-04-16T08:00:10.360Z,96721.88
2023-04-16T08:02:43.867Z,96721.38
2023-04-16T08:05:15.866Z,96714.75
2023-04-16T08:07:47.867Z,96717.53
2023-04-16T08:10:19.945Z,96728.75
2023-04-16T08:12:51.868Z,96736.28
2023-04-16T08:15:23.668Z,96734.63
2023-04-16T08:17:55.592Z,96748.34
2023-04-16T08:20:27.598Z,96744.00
2023-04-16T08:22:59.703Z,96745.66
2023-04-16T08:25:31.994Z,96741.19
2023-04-16T08:28:03.806Z,96746.44
2023-04-16T08:30:35.743Z,96743.16
2023-04-16T08:33:07.478Z,96753.56
2023-04-16T08:35:39.487Z,96754.97
2023-04-16T08:38:11.310Z,96755.84
2023-04-16T08:40:43.813Z,96763.22
2023-04-16T08:43:18.169Z,96758.03
2023-04-16T08:45:51.545Z,96762.16
2023-04-16T08:48:24.034Z,96771.44
2023-04-16T08:50:56.491Z,96768.91
2023-04-16T08:53:53.557Z,96764.84
2023-04-16T08:56:26.557Z,96759.19
2023-04-16T08:59:05.153Z,96770.59
2023-04-16T09:01:39.079Z,96764.97
2023-04-16T09:04:11.461Z,96762.56
2023-04-16T09:06:44.331Z,96769.16
2023-04-16T09:09:17.871Z,96769.44
2023-04-16T09:11:54.051Z,96769.69
2023-04-16T09:14:26.187Z,96769.34
2023-04-16T09:17:01.174Z,96774.53
2023-04-16T09:19:32.834Z,96770.84
2023-04-16T09:22:04.463Z,96777.50
2023-04-16T09:24:38.414Z,96786.91
2023-04-16T09:27:14.339Z,96781.34
2023-04-16T09:29:46.268Z,96783.38
2023-04-16T09:32:24.526Z,96785.16
2023-04-16T09:35:01.756Z,96789.66
2023-04-16T09:37:33.792Z,96781.91
2023-04-16T09:40:06.657Z,96785.00
2023-04-16T09:42:38.581Z,96799.19
2023-04-16T09:45:11.220Z,96795.91
2023-04-16T09:47:45.903Z,96799.47
2023-04-16T09:50:20.316Z,96792.00
2023-04-16T09:52:52.314Z,96801.44
2023-04-16T09:55:27.738Z,96789.97
2023-04-16T09:58:01.301Z,96800.78
2023-04-16T10:00:43.260Z,96806.06
2023-04-16T10:03:15.818Z,96802.31
2023-04-16T10:05:47.758Z,96803.38
2023-04-16T10:08:19.366Z,96800.47
2023-04-16T10:10:51.346Z,96809.91
2023-04-16T10:13:23.142Z,96805.97
2023-04-16T10:15:57.982Z,96808.38
2023-04-16T10:18:29.490Z,96799.94
2023-04-16T10:21:01.510Z,96802.75
2023-04-16T10:23:34.027Z,96796.88
2023-04-16T10:26:06.456Z,96803.41
2023-04-16T10:28:37.980Z,96802.84
2023-04-16T10:31:09.801Z,96796.00
2023-04-16T10:33:42.169Z,96798.94
2023-04-16T10:36:23.843Z,96794.16
2023-04-16T10:38:59.887Z,96800.31
2023-04-16T10:41:33.555Z,96805.63
2023-04-16T10:44:10.324Z,96805.09
2023-04-16T10:46:43.948Z,96802.38
2023-04-16T10:49:35.504Z,96800.38
2023-04-16T10:52:13.550Z,96798.25
2023-04-16T10:54:47.917Z,96795.66
2023-04-16T10:57:20.545Z,96799.06
2023-04-16T10:59:54.861Z,96781.97
2023-04-16T11:02:29.198Z,96801.66
2023-04-16T11:05:01.956Z,96796.63
2023-04-16T11:07:35.115Z,96797.38
2023-04-16T11:10:12.644Z,96804.47
2023-04-16T11:12:47.658Z,96804.75
2023-04-16T11:15:19.582Z,96806.34
2023-04-16T11:17:52.714Z,96807.66
2023-04-16T11:20:26.546Z,96804.16
2023-04-16T11:22:58.397Z,96799.09
2023-04-16T11:25:31.584Z,96804.59
2023-04-16T11:28:03.213Z,96797.78
2023-04-16T11:30:40.490Z,96800.75
2023-04-16T11:33:12.388Z,96798.69
2023-04-16T11:35:48.154Z,96800.41
2023-04-16T11:38:19.652Z,96806.66
2023-04-16T11:40:54.137Z,96808.94
2023-04-16T11:43:26.801Z,96813.06
2023-04-16T11:46:12.937Z,96809.53
2023-04-16T11:48:58.687Z,96809.97
2023-04-16T11:51:30.303Z,96809.53
2023-04-16T11:54:02.156Z,96822.66
2023-04-16T11:56:36.271Z,96817.84
2023-04-16T11:59:09.251Z,96815.75
2023-04-16T12:01:45.697Z,96823.94
2023-04-16T12:04:21.323Z,96819.59
2023-04-16T12:07:10.972Z,96818.13
2023-04-16T12:09:44.011Z,96823.75
2023-04-16T12:12:32.525Z,96826.84
2023-04-16T12:15:05.136Z,96829.13
2023-04-16T12:17:38.565Z,96829.63
2023-04-16T12:20:15.726Z,96827.56
2023-04-16T12:22:49.623Z,96833.25
2023-04-16T12:25:24.700Z,96837.50
2023-04-16T12:27:56.327Z,96824.03
2023-04-16T12:30:28.035Z,96833.72
2023-04-16T12:33:17.593Z,96831.09
2023-04-16T12:35:49.723Z,96831.88
2023-04-16T12:38:24.074Z,96830.38
2023-04-16T12:40:57.917Z,96831.44
2023-04-16T12:43:31.391Z,96828.00
2023-04-16T12:46:04.306Z,96831.16
2023-04-16T12:48:36.266Z,96831.78
2023-04-16T12:51:08.525Z,96826.66
2023-04-16T12:53:40.534Z,96821.28
2023-04-16T12:56:23.835Z,96827.38
2023-04-16T12:58:56.150Z,96828.91
2023-04-16T13:01:28.354Z,96834.72
2023-04-16T13:04:00.017Z,96830.16
2023-04-16T13:06:36.810Z,96834.19
2023-04-16T13:09:08.392Z,96835.78
2023-04-16T13:11:40.050Z,96833.72
2023-04-16T13:14:11.746Z,96831.91
2023-04-16T13:16:43.259Z,96838.78
2023-04-16T13:19:15.900Z,96834.09
2023-04-16T13:21:47.565Z,96830.50
2023-04-16T13:24:21.731Z,96838.78
2023-04-16T13:26:53.789Z,96843.19
2023-04-16T13:29:25.334Z,96834.00
2023-04-16T13:31:57.468Z,96841.41
2023-04-16T13:34:29.131Z,96841.13
2023-04-16T13:37:00.856Z,96849.06
2023-04-16T13:39:32.336Z,96846.19
2023-04-16T13:42:04.038Z,96859.28
2023-04-16T13:44:35.661Z,96853.38
2023-04-16T13:47:07.260Z,96846.97
2023-04-16T13:49:38.884Z,96849.97
2023-04-16T13:52:10.612Z,96851.78
2023-04-16T13:54:42.655Z,96840.63
2023-04-16T13:57:14.146Z,96845.22
2023-04-16T13:59:46.204Z,96844.16
2023-04-16T14:02:18.009Z,96842.66
2023-04-16T14:04:49.598Z,96857.22
2023-04-16T14:07:22.553Z,96850.75
2023-04-16T14:09:54.227Z,96848.50
2023-04-16T14:12:25.795Z,96835.22
2023-04-16T14:14:57.479Z,96845.94
2023-04-16T14:17:28.989Z,96848.47
2023-04-16T14:20:05.049Z,96848.19
2023-04-16T14:22:36.577Z,96847.84
2023-04-16T14:25:08.593Z,96850.34
2023-04-16T14:27:41.245Z,96855.47
2023-04-16T14:30:13.147Z,96851.94
2023-04-16T14:32:44.786Z,96846.34
2023-04-16T14:35:20.876Z,96856.06
2023-04-16T14:37:56.240Z,96846.97
2023-04-16T14:40:27.977Z,96858.03
2023-04-16T14:42:59.538Z,96853.97
2023-04-16T14:45:32.348Z,96850.44
2023-04-16T14:48:04.436Z,96850.38
2023-04-16T14:50:38.031Z,96851.31
2023-04-16T14:53:11.950Z,96848.81
2023-04-16T14:55:44.051Z,96853.78
2023-04-16T14:58:15.590Z,96858.75
2023-04-16T15:00:47.160Z,96855.22
2023-04-16T15:03:18.991Z,96861.97
2023-04-16T15:05:55.623Z,96861.09
2023-04-16T15:08:27.659Z,96866.78
2023-04-16T15:10:59.801Z,96870.78
2023-04-16T15:13:34.168Z,96866.84
2023-04-16T15:16:05.874Z,96862.50
2023-04-16T15:18:37.494Z,96868.53
2023-04-16T15:21:11.152Z,96865.31
2023-04-16T15:23:43.865Z,96870.88
2023-04-16T15:26:15.545Z,96876.19
2023-04-16T15:28:47.039Z,96875.47
2023-04-16T15:31:20.781Z,96871.59
2023-04-16T15:33:53.762Z,96880.03
2023-04-16T15:36:26.847Z,96872.91
2023-04-16T15:38:58.340Z,96879.00
2023-04-16T15:41:31.837Z,96878.13
2023-04-16T15:44:03.594Z,96874.66
2023-04-16T15:46:35.396Z,96882.00
2023-04-16T15:49:06.958Z,96882.00
2023-04-16T15:51:38.537Z,96883.06
2023-04-16T15:54:10.087Z,96888.13
2023-04-16T15:56:41.717Z,96886.66
2023-04-16T15:59:13.621Z,96893.47
2023-04-16T16:01:45.909Z,96888.75
2023-04-16T16:04:17.654Z,96888.84
2023-04-16T16:06:50.309Z,96882.63
2023-04-16T16:09:26.216Z,96885.75
2023-04-16T16:11:58.861Z,96889.28
2023-04-16T16:14:30.595Z,96885.09
2023-04-16T16:17:02.136Z,96888.09
2023-04-16T16:19:33.635Z,96899.44
2023-04-16T16:22:05.153Z,96887.09
2023-04-16T16:24:36.744Z,96895.13
2023-04-16T16:27:10.735Z,96894.91
2023-04-16T16:29:44.335Z,96895.34
2023-04-16T16:32:16.690Z,96896.19
2023-04-16T16:34:48.647Z,96895.97
2023-04-16T16:37:20.290Z,96896.47
2023-04-16T16:39:51.779Z,96900.69
2023-04-16T16:42:23.686Z,96899.69
2023-04-16T16:44:57.325Z,96896.25
2023-04-16T16:47:29.229Z,96897.03
2023-04-16T16:50:02.983Z,96903.34
2023-04-16T16:52:34.868Z,96899.56
2023-04-16T16:55:10.801Z,96904.56
2023-04-16T16:57:42.422Z,96892.44
2023-04-16T17:00:16.189Z,96900.22
2023-04-16T17:02:51.118Z,96905.38
2023-04-16T17:05:23.904Z,96907.13
2023-04-16T17:07:55.576Z,96910.00
2023-04-16T17:10:27.732Z,96908.56
2023-04-16T17:12:59.273Z,96907.94
2023-04-16T17:15:31.002Z,96907.28
2023-04-16T17:18:02.559Z,96914.09
2023-04-16T17:20:34.193Z,96913.34
2023-04-16T17:23:06.101Z,96911.50
2023-04-16T17:25:37.655Z,96913.13
2023-04-16T17:28:09.236Z,96911.19
2023-04-16T17:30:40.937Z,96914.53
2023-04-16T17:33:12.537Z,96921.56
2023-04-16T17:35:44.160Z,96919.00
2023-04-16T17:38:15.900Z,96917.25
2023-04-16T17:40:47.477Z,96924.16
2023-04-16T17:43:19.092Z,96921.59
2023-04-16T17:45:50.961Z,96919.31
2023-04-16T17:48:22.546Z,96922.38
2023-04-16T17:50:57.085Z,96918.00
2023-04-16T17:53:28.609Z,96921.00
2023-04-16T17:56:00.204Z,96928.47
2023-04-16T17:58:34.919Z,96925.09
2023-04-16T18:01:06.655Z,96929.75
2023-04-16T18:03:39.824Z,96936.91
2023-04-16T18:06:11.575Z,96930.25
2023-04-16T18:08:43.148Z,96923.34
2023-04-16T18:11:15.266Z,96935.88
2023-04-16T18:13:46.992Z,96931.53
2023-04-16T18:16:18.657Z,96939.19
2023-04-16T18:18:50.380Z,96933.25
2023-04-16T18:21:22.036Z,96937.13
2023-04-16T18:23:53.971Z,96939.69
2023-04-16T18:26:29.940Z,96938.94
2023-04-16T18:29:01.955Z,96939.44
2023-04-16T18:31:33.613Z,96939.94
2023-04-16T18:34:05.646Z,96948.25
2023-04-16T18:36:39.635Z,96938.88
2023-04-16T18:39:11.184Z,96945.25
2023-04-16T18:41:43.556Z,96948.09
2023-04-16T18:44:17.313Z,96949.03
2023-04-16T18:46:48.914Z,96944.38
2023-04-16T18:49:20.650Z,96949.53
2023-04-16T18:51:55.648Z,96956.59
2023-04-16T18:54:27.969Z,96951.19
2023-04-16T18:57:00.785Z,96958.84
2023-04-16T18:59:32.647Z,96954.72
2023-04-16T19:02:04.333Z,96955.16
2023-04-16T19:04:36.182Z,96953.31
2023-04-16T19:07:07.747Z,96963.97
2023-04-16T19:09:39.262Z,96960.81
2023-04-16T19:12:11.002Z,96962.53
2023-04-16T19:14:42.471Z,96965.19
2023-04-16T19:17:17.282Z,96969.09
2023-04-16T19:19:48.966Z,96973.47
2023-04-16T19:22:20.617Z,96967.72
2023-04-16T19:24:52.193Z,96967.84
2023-04-16T19:27:23.789Z,96971.69
2023-04-16T19:29:55.337Z,96960.53
2023-04-16T19:32:27.001Z,96965.25
2023-04-16T19:34:58.506Z,96960.06
2023-04-16T19:37:30.077Z,96962.91
2023-04-16T19:40:02.049Z,96961.97
2023-04-16T19:42:33.823Z,96967.56
2023-04-16T19:45:06.454Z,96965.97
2023-04-16T19:47:38.055Z,96965.97
2023-04-16T19:50:10.543Z,96966.44
2023-04-16T19:52:42.080Z,96969.78
2023-04-16T19:55:13.753Z,96962.41
2023-04-16T19:57:47.505Z,96956.41
2023-04-16T20:00:20.833Z,96962.66
2023-04-16T20:02:52.671Z,96965.72
2023-04-16T20:05:26.470Z,96970.38
2023-04-16T20:07:58.077Z,96968.63
2023-04-16T20:10:31.475Z,96965.16
2023-04-16T20:13:03.338Z,96966.31
2023-04-16T20:15:35.002Z,96968.78
2023-04-16T20:18:08.517Z,96955.03
2023-04-16T20:20:40.041Z,96953.03
2023-04-16T20:23:11.569Z,96955.47
2023-04-16T20:25:43.656Z,96952.94
2023-04-16T20:28:16.368Z,96955.38
2023-04-16T20:30:47.989Z,96955.25
2023-04-16T20:33:19.690Z,96959.00
2023-04-16T20:35:52.219Z,96960.22
2023-04-16T20:38:25.068Z,96961.97
2023-04-16T20:41:10.039Z,96957.13
2023-04-16T20:43:42.383Z,96955.47
2023-04-16T20:49:01.468Z,96949.28
2023-04-16T20:51:33.346Z,96953.56
2023-04-16T20:54:04.872Z,96945.25
2023-04-16T20:56:36.430Z,96948.97
2023-04-16T20:59:13.274Z,96942.91
2023-04-16T21:01:44.851Z,96945.72
2023-04-16T21:04:16.706Z,96931.63
2023-04-16T21:06:49.080Z,96934.97
2023-04-16T21:09:21.156Z,96929.78
2023-04-16T21:11:53.092Z,96926.91
2023-04-16T21:14:24.703Z,96927.56
2023-04-16T21:16:56.814Z,96924.16
2023-04-16T21:19:28.298Z,96924.72
2023-04-16T21:21:59.846Z,96924.09
2023-04-16T21:24:34.421Z,96924.63
2023-04-16T21:27:06.164Z,96920.09
2023-04-16T21:29:37.649Z,96923.63
2023-04-16T21:32:20.434Z,96925.66
2023-04-16T21:34:51.979Z,96920.03
2023-04-16T21:37:23.503Z,96924.63
2023-04-16T21:39:55.011Z,96920.78
2023-04-16T21:42:26.943Z,96921.22
2023-04-16T21:44:58.625Z,96915.59
2023-04-16T21:47:30.196Z,96918.78
2023-04-16T21:50:01.779Z,96913.31
2023-04-16T21:52:33.430Z,96917.41
2023-04-16T21:55:09.526Z,96915.88
2023-04-16T21:57:41.149Z,96916.34
2023-04-16T22:00:14.228Z,96908.06
2023-04-16T22:02:46.220Z,96912.19
2023-04-16T22:05:19.875Z,96903.66
2023-04-16T22:07:52.285Z,96909.63
2023-04-16T22:10:23.821Z,96903.69
2023-04-16T22:12:55.302Z,96904.28
2023-04-16T22:15:26.860Z,96894.97
2023-04-16T22:17:58.409Z,96898.97
2023-04-16T22:20:30.763Z,96902.97
2023-04-16T22:23:02.330Z,96898.81
2023-04-16T22:25:33.922Z,96899.44
2023-04-16T22:28:06.264Z,96887.69
2023-04-16T22:30:38.052Z,96898.38
2023-04-16T22:33:09.584Z,96892.38
2023-04-16T22:35:41.379Z,96894.72
2023-04-16T22:38:12.964Z,96892.19
2023-04-16T22:40:48.745Z,96891.84
2023-04-16T22:43:20.469Z,96896.81
2023-04-16T22:46:04.373Z,96892.00
2023-04-16T22:48:38.618Z,96891.75
2023-04-16T22:51:10.365Z,96885.84
2023-04-16T22:53:41.921Z,96877.88
2023-04-16T22:56:13.398Z,96883.84
2023-04-16T22:58:45.720Z,96884.44
2023-04-16T23:01:20.467Z,96892.03
2023-04-16T23:03:53.220Z,96895.19
2023-04-16T23:06:24.802Z,96897.81
2023-04-16T23:08:56.374Z,96891.53
2023-04-16T23:11:27.899Z,96892.53
2023-04-16T23:13:59.630Z,96884.53
2023-04-16T23:16:31.209Z,96880.88
2023-04-16T23:19:02.774Z,96883.03
2023-04-16T23:21:34.294Z,96885.19
2023-04-16T23:24:06.341Z,96880.91
2023-04-16T23:26:37.938Z,96883.53
2023-04-16T23:29:09.918Z,96893.72
2023-04-16T23:31:41.586Z,96884.28
2023-04-16T23:34:13.211Z,96884.53
2023-04-16T23:36:44.744Z,96891.94
2023-04-16T23:39:16.339Z,96882.75
2023-04-16T23:41:47.895Z,96888.41
2023-04-16T23:44:19.421Z,96886.09
2023-04-16T23:46:51.023Z,96886.09
2023-04-16T23:49:22.934Z,96882.53
2023-04-16T23:51:54.518Z,96883.53
2023-04-16T23:54:26.236Z,96877.28
2023-04-16T23:56:57.716Z,96886.50
2023-04-16T23:59:29.301Z,96887.28
